createdAt,value
2017-05-19T00:00:18.399Z,0
2017-05-19T00:02:33.612Z,0
2017-05-19T00:03:18.714Z,0
2017-05-19T00:04:18.461Z,0
2017-05-19T00:05:18.779Z,0
2017-05-19T00:06:19.088Z,0
2017-05-19T00:07:19.130Z,0
2017-05-19T00:08:18.848Z,0
2017-05-19T00:09:19.209Z,0
2017-05-19T00:10:18.900Z,0
2017-05-19T00:12:18.946Z,0
2017-05-19T00:13:18.988Z,0
2017-05-19T00:14:19.301Z,0
2017-05-19T00:15:19.023Z,0
2017-05-19T00:16:19.361Z,0
2017-05-19T00:17:18.764Z,0
2017-05-19T00:19:19.147Z,0
2017-05-19T00:20:19.159Z,0
2017-05-19T00:21:18.945Z,0
2017-05-19T00:22:19.523Z,0
2017-05-19T00:23:48.458Z,0
2017-05-19T00:25:34.199Z,0
2017-05-19T00:26:19.318Z,0
2017-05-19T00:27:33.973Z,0
2017-05-19T00:28:19.356Z,0
2017-05-19T00:29:34.308Z,0
2017-05-19T00:30:34.314Z,0
2017-05-19T00:31:19.745Z,0
2017-05-19T00:32:19.759Z,0
2017-05-19T00:33:19.499Z,0
2017-05-19T00:34:34.120Z,0
2017-05-19T00:35:19.532Z,0
2017-05-19T00:36:19.575Z,0
2017-05-19T00:37:19.286Z,0
2017-05-19T00:38:19.924Z,0
2017-05-19T00:39:19.351Z,0
2017-05-19T00:40:48.890Z,0
2017-05-19T00:41:19.686Z,0
2017-05-19T00:42:20.036Z,0
2017-05-19T00:43:19.738Z,0
2017-05-19T00:44:20.081Z,0
2017-05-19T00:45:34.409Z,0
2017-05-19T00:46:20.126Z,0
2017-05-19T00:47:19.835Z,0
2017-05-19T00:48:19.577Z,0
2017-05-19T00:49:34.827Z,0
2017-05-19T00:50:19.936Z,0
2017-05-19T00:51:20.261Z,0
2017-05-19T00:52:19.981Z,0
2017-05-19T00:53:34.928Z,0
2017-05-19T00:54:20.027Z,0
2017-05-19T00:55:20.370Z,0
2017-05-19T00:56:20.382Z,0
2017-05-19T00:57:35.027Z,0
2017-05-19T00:58:20.431Z,0
2017-05-19T00:59:20.159Z,0
2017-05-19T01:00:35.105Z,0
2017-05-19T01:01:35.117Z,0
2017-05-19T01:02:19.919Z,0
2017-05-19T01:03:19.951Z,0
2017-05-19T01:05:20.307Z,0
2017-05-19T01:06:20.039Z,0
2017-05-19T01:07:35.292Z,0
2017-05-19T01:08:20.370Z,0
2017-05-19T01:09:35.333Z,0
2017-05-19T01:10:20.738Z,0
2017-05-19T01:12:20.492Z,0
2017-05-19T01:13:20.504Z,0
2017-05-19T01:14:20.849Z,0
2017-05-19T01:15:20.244Z,0
2017-05-19T01:16:20.881Z,0
2017-05-19T01:17:20.936Z,0
2017-05-19T01:18:20.936Z,0
2017-05-19T01:19:20.353Z,0
2017-05-19T01:20:35.615Z,0
2017-05-19T01:21:35.631Z,0
2017-05-19T01:22:35.041Z,0
2017-05-19T01:23:21.071Z,0
2017-05-19T01:24:21.091Z,0
2017-05-19T01:25:21.090Z,0
2017-05-19T01:26:20.832Z,0
2017-05-19T01:27:20.851Z,0
2017-05-19T01:28:21.184Z,0
2017-05-19T01:29:21.218Z,0
2017-05-19T01:30:20.933Z,0
2017-05-19T01:31:21.270Z,0
2017-05-19T01:32:21.298Z,0
2017-05-19T01:33:21.011Z,0
2017-05-19T01:34:35.955Z,0
2017-05-19T01:36:21.380Z,0
2017-05-19T01:37:36.045Z,0
2017-05-19T01:38:21.432Z,0
2017-05-19T01:39:21.467Z,0
2017-05-19T01:40:21.477Z,0
2017-05-19T01:41:20.908Z,0
2017-05-19T01:42:21.549Z,0
2017-05-19T01:43:21.257Z,0
2017-05-19T01:44:21.299Z,0
2017-05-19T01:45:20.995Z,0
2017-05-19T01:46:21.033Z,0
2017-05-19T01:47:21.358Z,0
2017-05-19T01:48:21.379Z,0
2017-05-19T01:49:36.325Z,0
2017-05-19T01:50:21.433Z,0
2017-05-19T01:51:21.152Z,0
2017-05-19T01:52:36.412Z,0
2017-05-19T01:53:36.432Z,0
2017-05-19T01:54:21.537Z,0
2017-05-19T01:55:21.574Z,0
2017-05-19T01:56:21.289Z,0
2017-05-19T01:57:21.616Z,0
2017-05-19T01:58:36.245Z,0
2017-05-19T01:59:21.664Z,0
2017-05-19T02:00:21.377Z,0
2017-05-19T02:01:36.633Z,0
2017-05-19T02:02:22.042Z,0
2017-05-19T02:03:21.759Z,0
2017-05-19T02:04:21.783Z,0
2017-05-19T02:05:36.716Z,0
2017-05-19T02:06:22.157Z,0
2017-05-19T02:07:22.167Z,0
2017-05-19T02:08:36.791Z,0
2017-05-19T02:11:22.253Z,0
2017-05-19T02:12:22.286Z,0
2017-05-19T02:13:36.928Z,0
2017-05-19T02:14:22.036Z,0
2017-05-19T02:15:22.354Z,0
2017-05-19T02:16:36.688Z,0
2017-05-19T02:17:22.423Z,0
2017-05-19T02:18:22.452Z,0
2017-05-19T02:19:22.162Z,0
2017-05-19T02:20:22.510Z,0
2017-05-19T02:21:37.136Z,0
2017-05-19T02:22:22.541Z,0
2017-05-19T02:23:22.254Z,0
2017-05-19T02:24:37.207Z,0
2017-05-19T02:25:36.936Z,0
2017-05-19T02:26:36.645Z,0
2017-05-19T02:27:22.063Z,0
2017-05-19T02:28:37.316Z,0
2017-05-19T02:29:37.336Z,0
2017-05-19T02:30:36.736Z,0
2017-05-19T02:31:22.467Z,0
2017-05-19T02:33:22.522Z,0
2017-05-19T02:34:22.247Z,0
2017-05-19T02:35:22.554Z,0
2017-05-19T02:36:37.190Z,0
2017-05-19T02:37:22.915Z,0
2017-05-19T02:39:37.274Z,0
2017-05-19T02:40:23.005Z,0
2017-05-19T02:41:22.709Z,0
2017-05-19T02:42:23.053Z,0
2017-05-19T02:43:37.682Z,0
2017-05-19T02:44:22.815Z,0
2017-05-19T02:45:37.432Z,0
2017-05-19T02:47:22.859Z,0
2017-05-19T02:48:23.198Z,0
2017-05-19T02:49:23.208Z,0
2017-05-19T02:50:37.844Z,0
2017-05-19T02:51:37.560Z,0
2017-05-19T02:52:23.293Z,0
2017-05-19T02:53:23.303Z,0
2017-05-19T02:54:23.356Z,0
2017-05-19T02:55:23.074Z,0
2017-05-19T02:56:37.997Z,0
2017-05-19T02:57:23.412Z,0
2017-05-19T02:58:23.138Z,5
2017-05-19T02:59:38.136Z,5
2017-05-19T03:00:23.190Z,5
2017-05-19T03:01:23.522Z,5
2017-05-19T03:02:22.925Z,5
2017-05-19T03:03:52.780Z,5
2017-05-19T03:04:37.903Z,5
2017-05-19T03:05:38.213Z,5
2017-05-19T03:06:23.632Z,5
2017-05-19T03:07:23.367Z,10
2017-05-19T03:08:23.374Z,10
2017-05-19T03:09:23.701Z,10
2017-05-19T03:10:23.428Z,10
2017-05-19T03:11:23.760Z,10
2017-05-19T03:12:38.404Z,10
2017-05-19T03:13:23.516Z,15
2017-05-19T03:14:23.227Z,15
2017-05-19T03:15:23.254Z,15
2017-05-19T03:16:23.581Z,15
2017-05-19T03:17:23.601Z,15
2017-05-19T03:18:38.254Z,20
2017-05-19T03:19:23.641Z,20
2017-05-19T03:20:23.379Z,20
2017-05-19T03:21:23.709Z,20
2017-05-19T03:22:23.731Z,20
2017-05-19T03:23:23.149Z,25
2017-05-19T03:24:23.770Z,25
2017-05-19T03:25:23.490Z,25
2017-05-19T03:26:23.518Z,25
2017-05-19T03:27:24.146Z,25
2017-05-19T03:29:23.591Z,30
2017-05-19T03:30:24.229Z,30
2017-05-19T03:31:23.654Z,30
2017-05-19T03:32:23.972Z,35
2017-05-19T03:33:24.303Z,35
2017-05-19T03:34:24.347Z,35
2017-05-19T03:35:23.445Z,35
2017-05-19T03:36:24.071Z,40
2017-05-19T03:37:24.415Z,40
2017-05-19T03:38:39.100Z,40
2017-05-19T03:39:23.544Z,40
2017-05-19T03:40:24.466Z,45
2017-05-19T03:41:24.513Z,45
2017-05-19T03:42:23.911Z,45
2017-05-19T03:43:24.238Z,45
2017-05-19T03:44:39.181Z,50
2017-05-19T03:45:24.301Z,50
2017-05-19T03:46:24.322Z,55
2017-05-19T03:47:24.341Z,55
2017-05-19T03:48:24.373Z,60
2017-05-19T03:49:24.392Z,60
2017-05-19T03:50:24.728Z,60
2017-05-19T03:51:24.460Z,60
2017-05-19T03:52:24.785Z,65
2017-05-19T03:53:24.813Z,100
2017-05-19T03:55:24.848Z,85
2017-05-19T03:56:24.555Z,75
2017-05-19T03:57:24.295Z,75
2017-05-19T03:58:24.614Z,75
2017-05-19T03:59:39.265Z,105
2017-05-19T04:00:24.980Z,165
2017-05-19T04:01:24.690Z,185
2017-05-19T04:02:25.028Z,120
2017-05-19T04:03:25.056Z,85
2017-05-19T04:04:25.069Z,85
2017-05-19T04:05:25.083Z,85
2017-05-19T04:06:25.121Z,90
2017-05-19T04:07:25.160Z,85
2017-05-19T04:08:25.188Z,85
2017-05-19T04:09:24.891Z,90
2017-05-19T04:10:40.132Z,95
2017-05-19T04:11:39.863Z,115
2017-05-19T04:12:39.891Z,115
2017-05-19T04:13:25.293Z,105
2017-05-19T04:14:25.307Z,110
2017-05-19T04:15:25.043Z,110
2017-05-19T04:16:25.072Z,105
2017-05-19T04:17:25.087Z,100
2017-05-19T04:18:40.061Z,105
2017-05-19T04:19:25.438Z,110
2017-05-19T04:20:25.480Z,120
2017-05-19T04:21:25.504Z,110
2017-05-19T04:22:25.205Z,115
2017-05-19T04:23:25.551Z,115
2017-05-19T04:24:25.565Z,115
2017-05-19T04:26:25.330Z,115
2017-05-19T04:27:40.265Z,115
2017-05-19T04:28:25.357Z,120
2017-05-19T04:29:40.300Z,120
2017-05-19T04:30:25.418Z,125
2017-05-19T04:31:40.368Z,125
2017-05-19T04:32:25.154Z,130
2017-05-19T04:33:25.502Z,140
2017-05-19T04:34:25.212Z,150
2017-05-19T04:35:25.857Z,135
2017-05-19T04:36:25.871Z,135
2017-05-19T04:37:25.587Z,135
2017-05-19T04:38:25.623Z,145
2017-05-19T04:39:25.661Z,165
2017-05-19T04:40:25.983Z,295
2017-05-19T04:41:26.005Z,635
2017-05-19T04:42:26.026Z,815
2017-05-19T04:43:25.753Z,845
2017-05-19T04:44:40.695Z,860
2017-05-19T04:45:26.111Z,895
2017-05-19T04:46:40.434Z,940
2017-05-19T04:47:40.772Z,900
2017-05-19T04:48:26.189Z,880
2017-05-19T04:49:40.818Z,890
2017-05-19T04:51:40.868Z,910
2017-05-19T04:52:26.294Z,890
2017-05-19T04:53:40.929Z,920
2017-05-19T04:55:26.069Z,990
2017-05-19T04:56:40.731Z,960
2017-05-19T04:57:25.831Z,960
2017-05-19T04:58:26.159Z,965
2017-05-19T04:59:26.798Z,1015
2017-05-19T05:00:40.824Z,1030
2017-05-19T05:01:26.235Z,985
2017-05-19T05:02:26.577Z,1010
2017-05-19T05:03:41.229Z,1050
2017-05-19T05:04:26.965Z,1030
2017-05-19T05:05:41.356Z,1015
2017-05-19T05:06:26.702Z,1005
2017-05-19T05:07:26.726Z,985
2017-05-19T05:08:26.479Z,1030
2017-05-19T05:09:26.506Z,1080
2017-05-19T05:10:26.833Z,1055
2017-05-19T05:11:26.575Z,1040
2017-05-19T05:12:41.527Z,1130
2017-05-19T05:13:26.937Z,1130
2017-05-19T05:14:56.194Z,1105
2017-05-19T05:16:41.666Z,1155
2017-05-19T05:17:26.779Z,1160
2017-05-19T05:18:27.102Z,1140
2017-05-19T05:19:41.754Z,1180
2017-05-19T05:20:27.227Z,1185
2017-05-19T05:21:27.201Z,1205
2017-05-19T05:22:27.268Z,1175
2017-05-19T05:23:27.288Z,1170
2017-05-19T05:24:27.341Z,1165
2017-05-19T05:25:27.355Z,1200
2017-05-19T05:26:42.008Z,1170
2017-05-19T05:27:27.434Z,1165
2017-05-19T05:28:27.462Z,1190
2017-05-19T05:29:27.485Z,1170
2017-05-19T05:30:27.536Z,1170
2017-05-19T05:31:27.579Z,1175
2017-05-19T05:32:42.204Z,1170
2017-05-19T05:33:27.640Z,1190
2017-05-19T05:34:42.334Z,1180
2017-05-19T05:35:27.717Z,1195
2017-05-19T05:37:27.791Z,1220
2017-05-19T05:38:42.132Z,1220
2017-05-19T05:39:27.578Z,1215
2017-05-19T05:40:56.815Z,1220
2017-05-19T05:41:27.935Z,1230
2017-05-19T05:42:42.572Z,1190
2017-05-19T05:43:27.715Z,1195
2017-05-19T05:44:27.804Z,1230
2017-05-19T05:45:28.065Z,1245
2017-05-19T05:47:28.153Z,1220
2017-05-19T05:48:28.192Z,1225
2017-05-19T05:49:28.216Z,1200
2017-05-19T05:51:42.903Z,1240
2017-05-19T05:52:28.034Z,1230
2017-05-19T05:53:28.068Z,1230
2017-05-19T05:54:28.093Z,1205
2017-05-19T05:55:28.119Z,1220
2017-05-19T05:56:28.172Z,1255
2017-05-19T05:57:28.218Z,1265
2017-05-19T05:58:28.253Z,1210
2017-05-19T05:59:27.973Z,1230
2017-05-19T06:00:28.308Z,1235
2017-05-19T06:01:28.358Z,1210
2017-05-19T06:02:28.124Z,1215
2017-05-19T06:03:28.448Z,1270
2017-05-19T06:04:28.464Z,1225
2017-05-19T06:05:28.524Z,1235
2017-05-19T06:06:58.080Z,1285
2017-05-19T06:07:28.594Z,1260
2017-05-19T06:08:28.630Z,1215
2017-05-19T06:09:28.682Z,1230
2017-05-19T06:10:28.372Z,1220
2017-05-19T06:11:28.126Z,1255
2017-05-19T06:12:28.156Z,1295
2017-05-19T06:13:28.505Z,1245
2017-05-19T06:14:43.773Z,1235
2017-05-19T06:16:43.526Z,1205
2017-05-19T06:17:43.612Z,1215
2017-05-19T06:18:58.215Z,1225
2017-05-19T06:19:29.046Z,1235
2017-05-19T06:20:29.061Z,1245
2017-05-19T06:21:29.100Z,1235
2017-05-19T06:22:44.066Z,1215
2017-05-19T06:23:29.186Z,1235
2017-05-19T06:24:29.211Z,1235
2017-05-19T06:25:29.560Z,1220
2017-05-19T06:26:29.306Z,1255
2017-05-19T06:28:29.369Z,1205
2017-05-19T06:29:29.441Z,1235
2017-05-19T06:30:44.380Z,1210
2017-05-19T06:31:29.773Z,1220
2017-05-19T06:32:29.533Z,1210
2017-05-19T06:33:29.882Z,1185
2017-05-19T06:34:44.520Z,1135
2017-05-19T06:35:29.934Z,1175
2017-05-19T06:37:30.033Z,1190
2017-05-19T06:38:44.682Z,1155
2017-05-19T06:39:30.110Z,1150
2017-05-19T06:40:30.122Z,1135
2017-05-19T06:41:30.170Z,1095
2017-05-19T06:42:29.893Z,1095
2017-05-19T06:43:29.949Z,1080
2017-05-19T06:44:44.912Z,1060
2017-05-19T06:45:30.024Z,1035
2017-05-19T06:47:30.102Z,1000
2017-05-19T06:48:30.459Z,970
2017-05-19T06:49:30.178Z,930
2017-05-19T06:51:30.563Z,880
2017-05-19T06:52:30.298Z,860
2017-05-19T06:53:30.646Z,845
2017-05-19T06:54:45.005Z,775
2017-05-19T06:55:30.735Z,730
2017-05-19T06:56:30.449Z,730
2017-05-19T06:57:30.788Z,700
2017-05-19T06:58:45.472Z,660
2017-05-19T06:59:30.587Z,640
2017-05-19T07:00:30.604Z,625
2017-05-19T07:01:30.978Z,615
2017-05-19T07:02:30.694Z,600
2017-05-19T07:03:31.054Z,590
2017-05-19T07:04:31.095Z,580
2017-05-19T07:05:30.508Z,600
2017-05-19T07:06:30.852Z,605
2017-05-19T07:07:30.644Z,615
2017-05-19T07:08:30.936Z,620
2017-05-19T07:09:45.891Z,645
2017-05-19T07:10:31.033Z,685
2017-05-19T07:11:46.013Z,875
2017-05-19T07:12:31.380Z,1190
2017-05-19T07:13:46.047Z,1660
2017-05-19T07:14:31.156Z,1810
2017-05-19T07:15:31.492Z,1630
2017-05-19T07:16:31.544Z,1240
2017-05-19T07:19:31.672Z,1090
2017-05-19T07:21:46.359Z,1160
2017-05-19T07:22:46.384Z,1145
2017-05-19T07:23:31.531Z,1145
2017-05-19T07:24:31.562Z,1180
2017-05-19T07:25:31.600Z,1130
2017-05-19T07:26:31.630Z,1120
2017-05-19T07:27:31.367Z,1095
2017-05-19T07:28:32.030Z,1025
2017-05-19T07:29:32.065Z,1000
2017-05-19T07:30:31.507Z,1035
2017-05-19T07:31:31.846Z,1045
2017-05-19T07:32:32.202Z,1040
2017-05-19T07:33:31.933Z,990
2017-05-19T07:34:46.878Z,960
2017-05-19T07:35:31.685Z,965
2017-05-19T07:36:31.732Z,960
2017-05-19T07:37:46.986Z,935
2017-05-19T07:38:32.420Z,945
2017-05-19T07:39:32.170Z,945
2017-05-19T07:40:32.208Z,920
2017-05-19T07:41:46.864Z,900
2017-05-19T07:42:32.287Z,920
2017-05-19T07:43:32.031Z,935
2017-05-19T07:44:32.339Z,905
2017-05-19T07:45:32.712Z,875
2017-05-19T07:46:47.047Z,880
2017-05-19T07:47:32.780Z,885
2017-05-19T07:49:32.561Z,875
2017-05-19T07:50:32.901Z,860
2017-05-19T07:51:32.630Z,835
2017-05-19T07:52:32.356Z,800
2017-05-19T07:53:32.727Z,795
2017-05-19T07:54:33.053Z,800
2017-05-19T07:55:33.091Z,775
2017-05-19T07:56:33.125Z,755
2017-05-19T07:57:47.790Z,765
2017-05-19T07:58:33.201Z,740
2017-05-19T07:59:32.946Z,720
2017-05-19T08:00:33.303Z,730
2017-05-19T08:01:32.708Z,735
2017-05-19T08:02:47.682Z,720
2017-05-19T08:03:33.709Z,720
2017-05-19T08:04:33.163Z,710
2017-05-19T08:06:33.244Z,695
2017-05-19T08:08:02.815Z,680
2017-05-19T08:08:48.219Z,675
2017-05-19T08:09:33.348Z,660
2017-05-19T08:10:33.387Z,635
2017-05-19T08:11:33.117Z,625
2017-05-19T08:12:48.075Z,625
2017-05-19T08:13:48.423Z,620
2017-05-19T08:14:33.553Z,610
2017-05-19T08:15:33.579Z,590
2017-05-19T08:16:33.321Z,580
2017-05-19T08:17:48.285Z,565
2017-05-19T08:18:34.010Z,560
2017-05-19T08:19:33.444Z,555
2017-05-19T08:20:33.790Z,545
2017-05-19T08:21:33.518Z,540
2017-05-19T08:22:33.859Z,535
2017-05-19T08:23:34.203Z,525
2017-05-19T08:24:48.852Z,515
2017-05-19T08:25:33.675Z,510
2017-05-19T08:26:34.314Z,505
2017-05-19T08:28:34.110Z,490
2017-05-19T08:29:48.738Z,485
2017-05-19T08:30:34.161Z,480
2017-05-19T08:31:48.839Z,475
2017-05-19T08:32:49.199Z,470
2017-05-19T08:33:34.287Z,465
2017-05-19T08:34:33.721Z,460
2017-05-19T08:35:48.662Z,450
2017-05-19T08:36:34.095Z,450
2017-05-19T08:37:34.446Z,450
2017-05-19T08:38:34.473Z,450
2017-05-19T08:39:34.212Z,445
2017-05-19T08:40:49.471Z,445
2017-05-19T08:41:48.899Z,445
2017-05-19T08:42:34.630Z,445
2017-05-19T08:43:34.061Z,440
2017-05-19T08:44:49.645Z,440
2017-05-19T08:45:34.755Z,445
2017-05-19T08:46:34.773Z,445
2017-05-19T08:47:34.808Z,445
2017-05-19T08:48:49.174Z,440
2017-05-19T08:49:49.227Z,440
2017-05-19T08:51:04.170Z,435
2017-05-19T08:51:34.675Z,435
2017-05-19T08:52:35.027Z,435
2017-05-19T08:53:34.458Z,440
2017-05-19T08:54:35.421Z,435
2017-05-19T08:56:04.662Z,435
2017-05-19T08:56:35.492Z,435
2017-05-19T08:57:35.281Z,435
2017-05-19T08:58:35.240Z,435
2017-05-19T08:59:50.203Z,430
2017-05-19T09:00:35.317Z,430
2017-05-19T09:01:35.369Z,420
2017-05-19T09:02:35.387Z,415
2017-05-19T09:03:49.760Z,410
2017-05-19T09:04:50.393Z,400
2017-05-19T09:05:35.829Z,390
2017-05-19T09:06:35.861Z,380
2017-05-19T09:07:35.894Z,370
2017-05-19T09:08:35.951Z,360
2017-05-19T09:09:35.680Z,340
2017-05-19T09:10:35.709Z,325
2017-05-19T09:11:50.366Z,320
2017-05-19T09:12:50.381Z,315
2017-05-19T09:13:35.513Z,320
2017-05-19T09:14:35.852Z,310
2017-05-19T09:15:35.892Z,310
2017-05-19T09:16:50.544Z,305
2017-05-19T09:17:35.964Z,305
2017-05-19T09:18:36.315Z,305
2017-05-19T09:19:50.970Z,300
2017-05-19T09:20:36.071Z,300
2017-05-19T09:21:50.718Z,300
2017-05-19T09:22:36.452Z,300
2017-05-19T09:23:36.173Z,295
2017-05-19T09:24:36.527Z,295
2017-05-19T09:25:36.559Z,295
2017-05-19T09:26:36.619Z,295
2017-05-19T09:27:36.613Z,295
2017-05-19T09:28:36.365Z,290
2017-05-19T09:29:51.317Z,295
2017-05-19T09:30:36.131Z,290
2017-05-19T09:31:36.463Z,295
2017-05-19T09:32:51.420Z,285
2017-05-19T09:33:36.550Z,285
2017-05-19T09:34:36.592Z,280
2017-05-19T09:35:51.539Z,285
2017-05-19T09:36:51.587Z,280
2017-05-19T09:37:36.400Z,280
2017-05-19T09:38:36.423Z,280
2017-05-19T09:40:36.502Z,285
2017-05-19T09:41:51.443Z,280
2017-05-19T09:42:36.879Z,285
2017-05-19T09:43:36.902Z,280
2017-05-19T09:44:51.863Z,275
2017-05-19T09:45:36.983Z,275
2017-05-19T09:46:51.326Z,275
2017-05-19T09:47:36.757Z,275
2017-05-19T09:48:52.004Z,275
2017-05-19T09:49:36.522Z,275
2017-05-19T09:50:36.559Z,275
2017-05-19T09:51:37.205Z,275
2017-05-19T09:52:36.944Z,270
2017-05-19T09:53:37.580Z,275
2017-05-19T09:54:37.620Z,275
2017-05-19T09:55:37.330Z,275
2017-05-19T09:56:36.755Z,275
2017-05-19T09:57:52.350Z,275
2017-05-19T09:58:37.516Z,275
2017-05-19T09:59:37.800Z,270
2017-05-19T10:00:37.537Z,270
2017-05-19T10:01:37.550Z,275
2017-05-19T10:02:36.978Z,270
2017-05-19T10:03:37.639Z,275
2017-05-19T10:04:52.603Z,275
2017-05-19T10:05:37.376Z,270
2017-05-19T10:06:37.116Z,270
2017-05-19T10:07:38.087Z,270
2017-05-19T10:08:38.133Z,270
2017-05-19T10:09:52.759Z,270
2017-05-19T10:10:37.886Z,270
2017-05-19T10:11:37.915Z,265
2017-05-19T10:12:52.879Z,265
2017-05-19T10:13:38.291Z,260
2017-05-19T10:14:37.721Z,260
2017-05-19T10:15:38.365Z,260
2017-05-19T10:16:38.084Z,260
2017-05-19T10:17:37.816Z,260
2017-05-19T10:18:38.483Z,260
2017-05-19T10:19:53.117Z,260
2017-05-19T10:20:37.951Z,255
2017-05-19T10:21:37.970Z,250
2017-05-19T10:22:38.015Z,250
2017-05-19T10:23:38.650Z,245
2017-05-19T10:24:53.294Z,245
2017-05-19T10:26:38.766Z,245
2017-05-19T10:27:38.800Z,245
2017-05-19T10:28:38.827Z,245
2017-05-19T10:29:38.861Z,245
2017-05-19T10:31:38.930Z,240
2017-05-19T10:32:38.948Z,240
2017-05-19T10:33:38.706Z,240
2017-05-19T10:34:39.037Z,240
2017-05-19T10:35:38.776Z,240
2017-05-19T10:36:39.103Z,240
2017-05-19T10:37:39.146Z,235
2017-05-19T10:38:39.175Z,235
2017-05-19T10:39:53.841Z,235
2017-05-19T10:40:39.239Z,235
2017-05-19T10:42:53.941Z,235
2017-05-19T10:43:39.356Z,235
2017-05-19T10:44:54.029Z,230
2017-05-19T10:45:39.438Z,230
2017-05-19T10:46:39.156Z,230
2017-05-19T10:47:53.800Z,225
2017-05-19T10:48:39.215Z,225
2017-05-19T10:49:39.269Z,225
2017-05-19T10:50:39.614Z,220
2017-05-19T10:51:54.252Z,220
2017-05-19T10:52:39.098Z,220
2017-05-19T10:53:39.404Z,215
2017-05-19T10:54:39.443Z,215
2017-05-19T10:55:54.387Z,215
2017-05-19T10:56:39.494Z,215
2017-05-19T10:57:39.549Z,215
2017-05-19T10:58:39.566Z,215
2017-05-19T10:59:39.604Z,215
2017-05-19T11:00:39.658Z,215
2017-05-19T11:01:39.969Z,215
2017-05-19T11:03:39.451Z,215
2017-05-19T11:04:39.780Z,215
2017-05-19T11:05:39.811Z,215
2017-05-19T11:06:39.845Z,210
2017-05-19T11:07:54.799Z,215
2017-05-19T11:08:54.842Z,215
2017-05-19T11:09:39.964Z,210
2017-05-19T11:10:39.686Z,210
2017-05-19T11:11:40.333Z,210
2017-05-19T11:12:40.058Z,210
2017-05-19T11:13:40.386Z,205
2017-05-19T11:14:40.476Z,205
2017-05-19T11:15:39.855Z,205
2017-05-19T11:16:40.509Z,205
2017-05-19T11:17:39.926Z,205
2017-05-19T11:18:40.269Z,200
2017-05-19T11:19:55.206Z,200
2017-05-19T11:20:55.263Z,195
2017-05-19T11:21:40.044Z,195
2017-05-19T11:23:55.353Z,195
2017-05-19T11:24:40.774Z,190
2017-05-19T11:25:40.495Z,190
2017-05-19T11:26:40.533Z,185
2017-05-19T11:27:40.563Z,185
2017-05-19T11:28:40.602Z,180
2017-05-19T11:29:40.635Z,180
2017-05-19T11:30:40.973Z,180
2017-05-19T11:31:55.601Z,180
2017-05-19T11:32:41.035Z,180
2017-05-19T11:33:40.769Z,175
2017-05-19T11:34:40.811Z,175
2017-05-19T11:35:55.756Z,175
2017-05-19T11:36:40.868Z,175
2017-05-19T11:37:55.526Z,170
2017-05-19T11:38:40.943Z,170
2017-05-19T11:39:55.881Z,170
2017-05-19T11:40:41.004Z,170
2017-05-19T11:41:41.030Z,170
2017-05-19T11:43:41.111Z,170
2017-05-19T11:44:41.136Z,170
2017-05-19T11:46:41.207Z,170
2017-05-19T11:47:41.537Z,170
2017-05-19T11:48:41.570Z,165
2017-05-19T11:49:41.608Z,165
2017-05-19T11:50:41.346Z,165
2017-05-19T11:51:41.674Z,170
2017-05-19T11:52:56.326Z,170
2017-05-19T11:53:56.061Z,165
2017-05-19T11:54:56.389Z,170
2017-05-19T11:55:41.216Z,170
2017-05-19T11:56:41.232Z,170
2017-05-19T11:57:41.875Z,170
2017-05-19T11:58:56.540Z,170
2017-05-19T11:59:41.957Z,170
2017-05-19T12:00:41.375Z,170
2017-05-19T12:01:42.018Z,170
2017-05-19T12:02:56.047Z,170
2017-05-19T12:03:56.101Z,170
2017-05-19T12:04:42.133Z,170
2017-05-19T12:05:41.840Z,170
2017-05-19T12:06:42.197Z,170
2017-05-19T12:07:57.130Z,170
2017-05-19T12:08:41.961Z,165
2017-05-19T12:09:42.275Z,170
2017-05-19T12:10:56.623Z,170
2017-05-19T12:11:42.357Z,170
2017-05-19T12:12:42.400Z,170
2017-05-19T12:13:42.108Z,170
2017-05-19T12:14:42.160Z,165
2017-05-19T12:15:42.484Z,165
2017-05-19T12:16:42.222Z,170
2017-05-19T12:17:42.275Z,170
2017-05-19T12:18:42.266Z,170
2017-05-19T12:19:42.310Z,170
2017-05-19T12:20:56.973Z,170
2017-05-19T12:21:42.377Z,170
2017-05-19T12:22:42.418Z,165
2017-05-19T12:23:42.454Z,170
2017-05-19T12:24:41.883Z,170
2017-05-19T12:25:42.526Z,170
2017-05-19T12:26:57.462Z,170
2017-05-19T12:27:42.270Z,170
2017-05-19T12:28:42.316Z,170
2017-05-19T12:29:42.953Z,170
2017-05-19T12:30:57.302Z,170
2017-05-19T12:31:42.404Z,170
2017-05-19T12:32:42.755Z,170
2017-05-19T12:33:42.781Z,170
2017-05-19T12:34:42.205Z,175
2017-05-19T12:35:57.473Z,170
2017-05-19T12:36:42.879Z,175
2017-05-19T12:37:57.524Z,170
2017-05-19T12:38:42.659Z,170
2017-05-19T12:39:42.996Z,175
2017-05-19T12:40:43.394Z,170
2017-05-19T12:41:58.053Z,170
2017-05-19T12:43:12.331Z,170
2017-05-19T12:43:42.543Z,170
2017-05-19T12:44:43.458Z,170
2017-05-19T12:45:57.808Z,170
2017-05-19T12:46:58.123Z,170
2017-05-19T12:47:42.960Z,170
2017-05-19T12:48:43.564Z,170
2017-05-19T12:49:43.615Z,170
2017-05-19T12:50:43.343Z,170
2017-05-19T12:51:43.362Z,170
2017-05-19T12:52:43.405Z,170
2017-05-19T12:53:43.147Z,175
2017-05-19T12:54:57.780Z,170
2017-05-19T12:55:43.831Z,170
2017-05-19T12:56:43.854Z,170
2017-05-19T12:57:43.577Z,170
2017-05-19T12:58:58.524Z,170
2017-05-19T12:59:43.958Z,170
2017-05-19T13:00:43.967Z,170
2017-05-19T13:01:44.015Z,175
2017-05-19T13:02:43.441Z,170
2017-05-19T13:03:43.777Z,170
2017-05-19T13:04:43.804Z,170
2017-05-19T13:05:44.156Z,170
2017-05-19T13:06:43.873Z,175
2017-05-19T13:07:44.224Z,180
2017-05-19T13:08:44.243Z,180
2017-05-19T13:09:44.301Z,175
2017-05-19T13:10:44.002Z,175
2017-05-19T13:11:58.961Z,175
2017-05-19T13:12:44.125Z,170
2017-05-19T13:13:59.022Z,175
2017-05-19T13:14:58.751Z,175
2017-05-19T13:15:59.085Z,175
2017-05-19T13:16:43.908Z,175
2017-05-19T13:17:43.937Z,175
2017-05-19T13:18:44.561Z,175
2017-05-19T13:19:44.611Z,175
2017-05-19T13:20:44.407Z,180
2017-05-19T13:21:44.657Z,175
2017-05-19T13:22:44.087Z,180
2017-05-19T13:23:44.130Z,175
2017-05-19T13:24:44.770Z,170
2017-05-19T13:25:44.824Z,170
2017-05-19T13:26:59.453Z,175
2017-05-19T13:27:44.870Z,170
2017-05-19T13:28:44.897Z,170
2017-05-19T13:29:59.242Z,175
2017-05-19T13:30:44.958Z,175
2017-05-19T13:31:44.992Z,175
2017-05-19T13:32:59.643Z,175
2017-05-19T13:33:45.091Z,180
2017-05-19T13:34:45.101Z,180
2017-05-19T13:35:44.834Z,175
2017-05-19T13:36:44.872Z,175
2017-05-19T13:37:45.216Z,175
2017-05-19T13:38:44.934Z,170
2017-05-19T13:39:44.962Z,170
2017-05-19T13:40:45.356Z,170
2017-05-19T13:41:45.023Z,170
2017-05-19T13:42:45.071Z,170
2017-05-19T13:43:45.413Z,170
2017-05-19T13:44:45.131Z,170
2017-05-19T13:47:00.107Z,170
2017-05-19T13:47:45.238Z,170
2017-05-19T13:48:44.968Z,170
2017-05-19T13:49:44.984Z,170
2017-05-19T13:50:45.627Z,165
2017-05-19T13:52:00.272Z,165
2017-05-19T13:52:45.694Z,165
2017-05-19T13:53:45.732Z,165
2017-05-19T13:54:45.762Z,170
2017-05-19T13:55:45.483Z,165
2017-05-19T13:56:45.840Z,170
2017-05-19T13:58:00.477Z,165
2017-05-19T13:59:00.509Z,170
2017-05-19T13:59:45.319Z,170
2017-05-19T14:00:45.660Z,175
2017-05-19T14:02:00.598Z,175
2017-05-19T14:02:45.734Z,170
2017-05-19T14:03:46.063Z,170
2017-05-19T14:04:46.100Z,170
2017-05-19T14:05:45.805Z,170
2017-05-19T14:06:46.158Z,170
2017-05-19T14:07:46.189Z,170
2017-05-19T14:08:46.225Z,170
2017-05-19T14:09:45.648Z,165
2017-05-19T14:10:46.272Z,170
2017-05-19T14:11:46.315Z,170
2017-05-19T14:12:46.048Z,170
2017-05-19T14:13:45.805Z,175
2017-05-19T14:14:46.101Z,170
2017-05-19T14:15:46.474Z,170
2017-05-19T14:17:01.081Z,165
2017-05-19T14:18:46.549Z,165
2017-05-19T14:20:01.186Z,165
2017-05-19T14:20:46.624Z,165
2017-05-19T14:21:46.640Z,165
2017-05-19T14:23:01.291Z,170
2017-05-19T14:23:46.740Z,170
2017-05-19T14:24:46.725Z,170
2017-05-19T14:25:46.463Z,165
2017-05-19T14:26:46.806Z,165
2017-05-19T14:27:46.841Z,165
2017-05-19T14:28:46.565Z,165
2017-05-19T14:29:46.602Z,170
2017-05-19T14:30:46.646Z,165
2017-05-19T14:31:46.665Z,170
2017-05-19T14:32:46.990Z,165
2017-05-19T14:34:46.778Z,165
2017-05-19T14:35:47.092Z,165
2017-05-19T14:37:01.755Z,170
2017-05-19T14:37:47.191Z,165
2017-05-19T14:38:47.185Z,165
2017-05-19T14:39:47.244Z,165